Mataró





Hora UTC 19:50
Temperatura 22.4 ºC
Humitat 58.4 %
Pressió 1018.1 hPa
Pluja 0.0 mm
Velocitat vent 5.1 km/h
Direcció vent NNE
Radiació solar 0.1 W/m²

Dades diàries 2022-08-19



Hora UTC (hivern +1h; estiu +2h)
Temperatura (ºC) Humitat (%) Pressió (hPa) Velocitat vent (km/h) Precipitació (mm) Radiació solar (W/m²)
Hora UTC Aire Humitat Pressió Vel. Dir. Vel. Max Dir. Intent. màx 5 min. Rad. Sol.
00:05 20.1 64.8 1015.4 15.6 NNW 15.6 NNW 0.0 0.1
00:10 20.3 62.9 1015.4 14.5 NW 23.3 WNW 0.0 0.1
00:15 20.6 60.7 1015.3 12.3 NNW 24.7 NNW 0.0 0.1
00:20 20.6 60.7 1015.3 11.3 NNW 18.0 NNW 0.0 0.1
00:25 20.6 59.2 1015.3 15.0 NNW 19.1 NNW 0.0 0.1
00:30 20.8 58.3 1015.3 14.9 NNW 19.1 NW 0.0 0.1
00:35 20.8 58.0 1015.3 13.0 NNW 16.6 NNW 0.0 0.1
00:40 20.8 58.4 1015.3 13.2 NNW 19.8 NW 0.0 0.1
00:45 20.7 60.2 1015.3 12.7 NNW 19.8 NNW 0.0 0.1
00:50 20.6 61.2 1015.3 13.6 NNW 21.5 NNW 0.0 0.1
00:55 20.5 61.5 1015.3 12.2 NNW 18.0 NNW 0.0 0.1
01:00 20.4 61.2 1015.3 9.7 NNW 16.9 NW 0.0 0.1
01:05 20.3 61.6 1015.4 3.7 NNW 9.2 NNW 0.0 0.1
01:10 20.0 64.1 1015.4 4.9 E 7.1 ENE 0.0 0.1
01:15 19.7 66.1 1015.4 1.1 ENE 4.6 ENE 0.0 0.1
01:20 19.6 66.2 1015.3 3.5 NW 8.1 WNW 0.0 0.1
01:25 19.3 69.1 1015.3 4.3 WNW 8.5 NW 0.0 0.1
01:30 19.1 69.5 1015.2 3.4 N 7.4 N 0.0 0.1
01:35 19.0 69.0 1015.2 4.3 N 8.5 NW 0.0 0.1
01:40 19.0 69.3 1015.2 3.5 N 7.4 NNW 0.0 0.1
01:45 18.9 70.8 1015.1 9.9 NNW 15.9 NW 0.0 0.1
01:50 18.9 71.1 1015.1 13.2 NNW 19.4 NNW 0.0 0.1
01:55 19.0 70.3 1015.1 12.0 NNW 17.6 NNW 0.0 0.1
02:00 19.0 70.6 1015.1 12.1 NNW 18.7 NNW 0.0 0.1
02:05 18.8 71.9 1015.1 11.5 NNW 16.6 NNW 0.0 0.1
02:10 18.7 71.7 1015.1 10.6 NNW 15.2 NW 0.0 0.1
02:15 18.7 70.3 1015.0 10.9 NW 15.5 NW 0.0 0.1
02:20 19.0 66.7 1015.0 12.2 NW 16.6 NW 0.0 0.1
02:25 19.2 65.5 1015.0 12.5 NW 18.0 NW 0.0 0.1
02:30 19.1 66.3 1015.0 14.9 NW 22.6 NW 0.0 0.1
02:35 19.2 65.8 1015.0 20.1 NW 32.5 NW 0.0 0.1
02:40 19.3 66.2 1015.1 21.3 NW 28.6 NW 0.0 0.1
02:45 19.2 66.5 1015.1 20.2 NW 33.5 NW 0.0 0.1
02:50 19.2 65.3 1015.1 18.1 NW 26.1 NNW 0.0 0.1
02:55 19.7 61.6 1015.1 16.7 NNW 26.1 NW 0.0 0.1
03:00 20.1 59.2 1015.1 17.3 NNW 28.2 NNW 0.0 0.1
03:05 20.6 57.1 1015.0 17.4 NNW 25.4 NNW 0.0 0.1
03:10 20.7 57.2 1015.1 16.0 NW 26.1 NNW 0.0 0.1
03:15 20.4 59.5 1015.1 11.8 NW 21.9 NW 0.0 0.1
03:20 19.8 62.4 1015.3 9.1 NNE 18.4 N 0.0 0.1
03:25 19.4 62.6 1015.3 4.3 NNE 8.1 NNW 0.0 0.1
03:30 19.3 63.4 1015.3 4.9 N 9.5 N 0.0 0.1
03:35 19.0 64.6 1015.4 10.0 NNW 16.6 NNW 0.0 0.1
03:40 19.1 64.1 1015.5 8.3 NNW 15.2 NNW 0.0 0.1
03:45 19.1 63.9 1015.5 5.4 NW 10.2 NW 0.0 0.1
03:50 18.8 66.7 1015.5 5.3 NW 13.1 NW 0.0 0.1
03:55 18.6 66.6 1015.5 13.3 NW 27.2 NW 0.0 0.1
04:00 18.8 66.1 1015.4 20.5 NNW 29.3 NNW 0.0 0.1
04:05 19.0 64.7 1015.4 20.3 NNW 25.8 NNW 0.0 0.1
04:10 19.2 64.0 1015.5 17.5 NNW 24.7 NW 0.0 0.1
04:15 19.2 64.4 1015.6 13.0 NNW 27.2 NNW 0.0 0.1
04:20 19.1 65.1 1015.6 9.3 NNW 17.3 NNW 0.0 0.1
04:25 18.9 65.4 1015.7 3.1 ENE 7.1 NNW 0.0 0.1
04:30 18.7 66.1 1015.7 3.3 NNE 12.0 NNE 0.0 0.1
04:35 18.9 63.6 1015.7 6.4 NNW 12.4 NNE 0.0 0.1
04:40 18.9 64.2 1015.8 2.7 E 10.6 NNW 0.0 0.1
04:45 18.6 65.2 1015.8 5.1 NE 10.9 NE 0.0 0.2
04:50 18.5 66.8 1015.9 1.4 W 3.5 NE 0.0 0.5
04:55 18.1 68.0 1016.0 4.3 NW 6.4 N 0.0 1.2
05:00 17.9 68.9 1016.1 7.2 NW 12.0 NW 0.0 2.4
05:05 17.9 69.1 1016.0 7.6 NNW 10.9 NNW 0.0 3.9
05:10 17.8 69.4 1016.0 6.7 NNW 11.3 NW 0.0 5.7
05:15 17.7 70.6 1016.1 8.8 NW 14.1 WNW 0.0 7.9
05:20 17.7 70.8 1016.2 10.8 NW 15.5 NNW 0.0 10.0
05:25 17.8 70.7 1016.3 10.6 NW 14.1 NNW 0.0 12.0
05:30 17.8 70.2 1016.3 6.3 NNW 9.9 NW 0.0 14.2
05:35 17.7 70.9 1016.3 8.8 NW 15.2 NW 0.0 16.2
05:40 17.8 69.8 1016.3 10.4 NW 14.8 NW 0.0 18.1
05:45 18.1 68.2 1016.4 8.0 NW 12.7 NW 0.0 25.0
05:50 18.3 67.2 1016.5 9.0 NW 12.7 NNW 0.0 22.3
05:55 18.5 66.8 1016.5 9.8 NW 14.1 NNW 0.0 62.4
06:00 18.6 66.7 1016.5 10.2 NNW 13.8 NW 0.0 121.5
06:05 18.6 66.7 1016.5 7.5 NNW 13.8 NW 0.0 136.8
06:10 19.0 65.1 1016.6 9.1 NW 13.4 NW 0.0 151.0
06:15 19.3 64.4 1016.7 9.5 WNW 15.2 WNW 0.0 165.1
06:20 19.4 63.9 1016.9 11.2 NW 16.6 NW 0.0 178.8
06:25 19.5 63.3 1016.9 9.7 NW 14.1 WNW 0.0 193.3
06:30 19.6 62.5 1016.9 10.8 NNW 14.8 NNW 0.0 207.8
06:35 19.9 60.6 1016.8 10.1 NNW 13.4 NNW 0.0 222.3
06:40 20.2 60.2 1016.9 8.5 NW 13.1 NW 0.0 237.3
06:45 20.5 58.9 1017.0 11.1 NW 16.2 NNW 0.0 252.0
06:50 20.6 58.5 1017.0 10.1 NNW 14.8 NW 0.0 266.5
06:55 20.8 58.0 1017.1 12.4 NW 16.9 NW 0.0 281.1
07:00 20.9 58.7 1017.2 9.0 NW 15.5 NNW 0.0 295.3
07:05 21.0 58.8 1017.2 8.2 NNW 13.4 NNW 0.0 309.7
07:10 21.1 58.5 1017.3 10.6 NNW 18.0 NNW 0.0 324.0
07:15 21.1 57.2 1017.2 9.7 NNW 17.3 NNW 0.0 339.2
07:20 21.4 56.3 1017.1 7.3 NNW 14.1 NNW 0.0 353.7
07:25 21.8 54.2 1017.2 6.1 N 11.3 N 0.0 368.2
07:30 22.2 53.5 1017.3 5.6 NNW 10.6 NNW 0.0 381.9
07:35 22.6 51.8 1017.3 5.5 NW 10.6 NW 0.0 395.9
07:40 23.0 51.9 1017.3 4.0 WNW 12.0 WNW 0.0 409.9
07:45 23.3 53.3 1017.3 7.6 W 12.7 W 0.0 423.5
07:50 23.3 53.4 1017.3 4.6 W 10.6 WNW 0.0 437.5
07:55 23.5 52.6 1017.3 7.3 W 12.0 W 0.0 451.4
08:00 23.6 53.1 1017.3 7.9 W 11.6 W 0.0 464.5
08:05 23.6 53.1 1017.4 6.9 W 10.6 W 0.0 476.9
08:10 23.7 53.0 1017.4 6.2 W 9.9 WNW 0.0 490.1
08:15 23.8 52.1 1017.4 5.8 W 9.2 W 0.0 503.7
08:20 23.9 51.9 1017.5 8.1 W 13.1 W 0.0 515.8
08:25 24.2 50.8 1017.5 7.2 WSW 11.3 W 0.0 528.8
08:30 24.3 49.1 1017.5 6.0 WNW 12.0 WSW 0.0 542.3
08:35 24.4 47.7 1017.5 3.1 WNW 6.0 WNW 0.0 554.9
08:40 24.5 48.1 1017.5 2.6 NE 4.9 NE 0.0 567.5
08:45 24.8 48.0 1017.5 3.2 ENE 7.1 NNE 0.0 579.7
08:50 25.0 47.4 1017.5 2.4 SW 7.1 WSW 0.0 591.1
08:55 25.2 47.4 1017.5 4.7 SSE 8.1 SSE 0.0 602.2
09:00 25.5 46.4 1017.4 4.5 S 7.8 S 0.0 608.3
09:05 25.6 45.3 1017.4 3.4 W 8.8 W 0.0 589.3
09:10 25.9 46.0 1017.4 5.1 S 13.4 SSE 0.0 637.0
09:15 25.6 47.1 1017.4 6.3 S 10.9 S 0.0 648.1
09:20 25.7 47.3 1017.4 6.9 S 10.9 S 0.0 657.5
09:25 25.7 47.2 1017.4 8.8 S 12.4 SSE 0.0 666.8
09:30 25.6 49.3 1017.5 9.0 S 13.1 S 0.0 676.9
09:35 25.6 50.6 1017.5 10.9 SSE 17.3 SE 0.0 686.8
09:40 25.5 51.4 1017.5 8.7 SE 13.8 SE 0.0 696.7
09:45 25.5 52.5 1017.6 10.0 SSE 14.8 S 0.0 704.1
09:50 25.4 53.5 1017.6 8.9 SSE 14.8 SE 0.0 712.6
09:55 25.2 54.2 1017.6 8.0 SE 13.1 SE 0.0 721.6
10:00 25.5 52.7 1017.6 7.2 SE 13.8 SE 0.0 730.4
10:05 25.6 53.7 1017.6 7.9 SE 14.1 SSE 0.0 738.6
10:10 25.5 54.2 1017.6 9.9 SSE 14.8 SSE 0.0 745.3
10:15 25.5 54.0 1017.6 11.2 SSE 18.0 SSE 0.0 752.7
10:20 25.4 53.7 1017.5 8.8 SSE 16.2 SE 0.0 759.9
10:25 25.3 54.4 1017.6 10.3 SE 16.6 SSE 0.0 767.2
10:30 25.2 54.4 1017.6 8.4 SE 14.1 SE 0.0 773.7
10:35 25.3 53.9 1017.6 8.3 SE 17.6 S 0.0 779.6
10:40 25.3 54.6 1017.5 7.8 SSE 15.2 SSE 0.0 785.8
10:45 25.6 55.0 1017.5 9.7 SSE 15.9 SSE 0.0 790.8
10:50 25.6 54.7 1017.6 10.6 SSE 17.6 S 0.0 794.5
10:55 25.4 54.5 1017.7 10.9 SE 17.6 SE 0.0 798.1
11:00 25.4 51.7 1017.7 10.5 SSE 18.7 SE 0.0 804.0
11:05 25.4 53.0 1017.7 9.4 SSE 16.2 SSE 0.0 808.0
11:10 25.5 54.2 1017.7 10.9 SSE 16.2 S 0.0 810.0
11:15 25.5 55.3 1017.7 10.7 SE 19.4 SSE 0.0 814.0
11:20 25.3 57.5 1017.6 12.0 SSE 18.4 SSE 0.0 817.0
11:25 25.4 57.4 1017.6 10.2 SSE 18.7 S 0.0 820.0
11:30 25.4 57.1 1017.6 9.8 SE 14.8 SE 0.0 822.0
11:35 25.6 57.5 1017.7 11.0 SSE 17.6 SSW 0.0 823.0
11:40 25.4 57.6 1017.6 8.4 SE 15.9 SE 0.0 827.0
11:45 25.5 54.7 1017.7 11.3 SSE 18.7 SE 0.0 828.0
11:50 25.4 56.5 1017.7 10.1 SE 15.9 SE 0.0 827.0
11:55 25.5 56.0 1017.6 9.6 SE 14.5 SE 0.0 829.0
12:00 25.5 56.7 1017.5 9.0 SE 15.9 ESE 0.0 829.0
12:05 25.5 55.7 1017.4 9.2 SE 15.5 SSE 0.0 830.0
12:10 25.6 57.1 1017.4 10.0 SSE 17.6 SSE 0.0 829.0
12:15 25.5 56.1 1017.5 10.8 SE 18.0 ESE 0.0 828.0
12:20 25.6 56.4 1017.5 11.9 SE 17.6 SSE 0.0 825.0
12:25 25.6 57.6 1017.5 12.4 SE 18.4 SE 0.0 822.0
12:30 25.6 56.9 1017.6 11.5 SSE 20.5 SSE 0.0 821.0
12:35 25.7 56.8 1017.6 12.3 SE 20.1 SE 0.0 818.0
12:40 25.4 57.1 1017.6 13.7 SE 20.8 SSE 0.0 816.0
12:45 25.5 58.7 1017.6 12.9 SSE 19.8 S 0.0 812.0
12:50 25.6 58.5 1017.6 11.3 SSE 19.8 S 0.0 809.0
12:55 25.7 57.8 1017.6 12.7 SE 18.4 SSW 0.0 806.0
13:00 25.7 57.9 1017.6 12.9 SE 21.9 SE 0.0 800.0
13:05 25.8 57.8 1017.5 10.4 SE 19.4 SSE 0.0 794.1
13:10 25.7 57.3 1017.5 10.3 SSE 17.3 ESE 0.0 790.2
13:15 25.8 57.3 1017.5 10.8 SSE 19.4 S 0.0 787.0
13:20 26.0 54.5 1017.4 11.5 SSE 20.5 SSE 0.0 781.1
13:25 26.0 55.8 1017.5 10.6 SE 17.3 SE 0.0 775.1
13:30 26.1 54.0 1017.5 9.4 SE 17.3 SSE 0.0 767.5
13:35 26.1 54.5 1017.5 11.8 SE 20.5 SE 0.0 760.8
13:40 25.9 55.8 1017.5 11.6 S 18.4 S 0.0 754.4
13:45 25.8 55.9 1017.5 12.3 S 20.1 S 0.0 747.2
13:50 25.7 58.2 1017.4 10.8 SSE 18.0 SE 0.0 737.2
13:55 25.9 59.3 1017.4 10.7 SE 16.9 SE 0.0 728.2
14:00 26.1 59.4 1017.4 11.0 SE 18.4 SSE 0.0 721.1
14:05 26.0 59.8 1017.3 13.5 SE 20.5 SSE 0.0 671.9
14:10 25.8 60.7 1017.3 10.0 SE 15.5 ESE 0.0 704.3
14:15 25.9 60.5 1017.3 10.7 SE 16.2 SSE 0.0 694.0
14:20 26.0 60.8 1017.3 9.3 SE 14.8 SE 0.0 684.1
14:25 25.9 61.5 1017.3 9.9 S 17.3 S 0.0 672.9
14:30 25.8 61.4 1017.3 10.0 SSE 18.4 SSE 0.0 651.3
14:35 26.1 60.2 1017.3 9.9 SE 16.2 SE 0.0 652.2
14:40 25.9 59.7 1017.3 8.6 SSE 14.8 ESE 0.0 643.8
14:45 26.1 60.9 1017.2 11.2 SSE 18.0 SSE 0.0 632.7
14:50 26.0 60.0 1017.2 9.2 SSE 16.6 SE 0.0 623.8
14:55 26.2 58.6 1017.2 10.4 SSE 16.6 S 0.0 610.7
15:00 26.0 59.3 1017.2 7.5 S 13.8 S 0.0 597.7
15:05 26.0 58.3 1017.1 10.0 SSW 15.2 S 0.0 587.7
15:10 26.1 57.7 1017.1 10.0 S 15.9 SSE 0.0 575.4
15:15 25.9 58.6 1017.1 10.2 S 17.3 SE 0.0 561.2
15:20 25.8 58.8 1017.1 10.2 SSE 16.2 SSE 0.0 548.6
15:25 25.7 59.6 1017.1 11.0 SSE 17.3 SSE 0.0 533.4
15:30 25.6 59.3 1017.2 10.2 S 15.5 SSW 0.0 519.5
15:35 25.7 58.6 1017.1 9.9 SSE 18.0 ESE 0.0 506.8
15:40 26.0 56.7 1017.1 8.2 S 16.6 S 0.0 493.7
15:45 25.7 56.6 1017.1 8.8 S 15.5 S 0.0 478.5
15:50 25.5 56.0 1017.1 10.1 S 17.6 SSE 0.0 464.1
15:55 25.5 55.8 1017.1 8.1 SSE 15.2 S 0.0 449.2
16:00 25.5 54.5 1017.1 8.8 SE 14.5 SSE 0.0 436.9
16:05 25.4 53.7 1017.1 7.2 SSE 13.1 SSE 0.0 423.6
16:10 25.6 52.8 1017.0 6.7 S 13.4 S 0.0 409.3
16:15 25.9 51.6 1017.0 5.6 SSE 9.5 S 0.0 394.6
16:20 26.0 50.7 1017.0 8.7 SSE 15.5 SE 0.0 379.0
16:25 26.1 49.4 1017.0 7.2 SE 12.0 SSE 0.0 364.8
16:30 26.0 48.7 1017.0 8.5 SE 14.5 S 0.0 351.3
16:35 26.0 48.3 1017.1 7.0 SE 13.4 ESE 0.0 336.4
16:40 25.9 46.9 1017.1 4.6 SE 11.3 SE 0.0 319.7
16:45 26.0 46.5 1017.0 5.7 SSE 9.9 S 0.0 304.6
16:50 26.0 47.1 1017.0 5.3 S 12.7 SSE 0.0 289.7
16:55 25.9 48.2 1017.0 4.9 SSE 10.9 SSE 0.0 274.6
17:00 25.8 48.1 1017.0 8.4 SE 11.6 SSE 0.0 259.8
17:05 25.7 47.6 1017.0 8.7 SSE 12.4 SSE 0.0 244.9
17:10 25.5 49.2 1017.0 7.8 SE 10.6 ESE 0.0 230.3
17:15 25.4 48.7 1016.9 6.4 SE 9.2 E 0.0 214.6
17:20 25.4 46.9 1016.9 4.4 ESE 9.5 ESE 0.0 199.3
17:25 25.4 49.8 1017.0 6.6 SE 9.9 ESE 0.0 185.0
17:30 25.3 51.7 1017.0 6.2 ESE 8.8 E 0.0 171.3
17:35 25.2 53.9 1017.0 5.4 SE 9.5 SSE 0.0 157.0
17:40 25.1 54.7 1017.0 8.0 SE 12.7 SSE 0.0 143.7
17:45 24.9 55.6 1017.0 7.1 SE 10.9 ESE 0.0 130.9
17:50 24.7 56.5 1016.9 6.5 SE 10.9 ESE 0.0 118.3
17:55 24.6 56.0 1017.0 6.2 ESE 10.2 SE 0.0 104.8
18:00 24.5 56.6 1017.0 3.2 ESE 8.8 ENE 0.0 67.9
18:05 24.4 58.3 1017.0 4.5 SE 8.5 SSE 0.0 25.3
18:10 24.3 58.8 1017.0 5.4 ESE 9.9 SE 0.0 22.1
18:15 24.1 58.4 1017.1 3.9 ESE 6.7 ESE 0.0 19.6
18:20 24.0 58.7 1017.1 3.5 ESE 8.8 ENE 0.0 17.3
18:25 23.9 59.1 1017.2 4.2 ESE 7.8 ESE 0.0 14.6
18:30 23.8 59.9 1017.2 2.1 E 6.0 E 0.0 12.2
18:35 23.7 60.7 1017.3 1.2 NE 5.6 E 0.0 9.7
18:40 23.6 61.0 1017.4 2.8 ESE 7.1 ESE 0.0 7.2
18:45 23.4 61.5 1017.5 1.8 NNE 4.9 NE 0.0 4.9
18:50 23.2 62.5 1017.5 1.7 NNE 4.2 NNE 0.0 3.1
18:55 23.0 63.4 1017.5 2.5 N 4.2 NE 0.0 1.8
19:00 22.8 64.1 1017.6 2.3 N 4.2 N 0.0 0.9
19:05 22.6 64.0 1017.7 3.5 N 4.6 NNE 0.0 0.4
19:10 22.5 63.9 1017.7 4.1 NNE 4.9 N 0.0 0.2
19:15 22.5 63.4 1017.8 3.8 NNE 5.6 NNE 0.0 0.1
19:20 22.5 61.9 1017.9 4.3 NNE 6.7 NE 0.0 0.1
19:25 22.5 60.0 1017.8 4.2 NNE 6.7 NE 0.0 0.1
19:30 22.6 59.1 1017.9 4.6 NNE 6.0 NNE 0.0 0.1
19:35 22.6 58.9 1017.9 5.1 NNE 6.7 NNE 0.0 0.1
19:40 22.5 58.8 1017.9 5.7 NNE 7.4 NNE 0.0 0.1
19:45 22.5 58.5 1018.0 6.1 NNE 7.4 N 0.0 0.1
19:50 22.4 58.4 1018.1 5.1 NNE 6.4 NNE 0.0 0.1
Màxima 26.3 71.9 1018.1 21.3 NW 33.5 NW 0.0 830.0
Mínima 17.4 45.3 1015.0
Total 0.0